KMYR

Myrtle Beach

Airport
ICAO code
KMYR
Summary
ICAO Region
NAM
ICAO Territory
Location

Myrtle Beach, South Carolina,

Coordinates
33° 40' 47" N , 78° 55' 42" W
KCC
Airport WX
Tropical Revolving Storm
Metar
KMYR 151656Z 16011KT 10SM CLR 26/17 A3002 RMK AO2 SLP166 T02560172

Description

International airport serving Myrtle Beach, South Carolina, USA, located 3 nm south west of the city's central business district.

Climatology

Humid “subtropical” climate (Köppen climate classification Cfa) - characterized by hot, humid summers and cool winters. Significant amounts of precipitation occur in all seasons in most areas. Winter rainfall (and sometimes snowfall) is associated with large storms that the westerlies steer from west to east. Most summer rainfall occurs during thunderstorms and occasional tropical storms (hurricanes).

Runways

Designator Length Width Surface Rops
18/36 2897 46 ASP Yes/Yes

Airport map

Aerial View

SKYbrary Partners:

Safety knowledge contributed by: